createdAt,value
2023-01-01T00:02:05.098Z,66.90
2023-01-01T00:04:34.426Z,56.90
2023-01-01T00:07:03.869Z,50.97
2023-01-01T00:09:49.550Z,50.03
2023-01-01T00:12:17.668Z,40.13
2023-01-01T00:14:45.615Z,35.20
2023-01-01T00:17:13.538Z,28.93
2023-01-01T00:19:41.485Z,27.67
2023-01-01T00:22:44.119Z,25.53
2023-01-01T00:24:58.780Z,23.27
2023-01-01T00:27:28.960Z,22.20
2023-01-01T00:29:57.258Z,23.80
2023-01-01T00:32:27.722Z,17.80
2023-01-01T00:34:55.676Z,17.77
2023-01-01T00:37:24.887Z,18.77
2023-01-01T00:39:52.747Z,15.83
2023-01-01T00:42:21.097Z,14.17
2023-01-01T00:44:48.885Z,14.13
2023-01-01T00:47:16.947Z,12.60
2023-01-01T00:49:44.787Z,15.00
2023-01-01T00:52:12.785Z,11.50
2023-01-01T00:54:42.022Z,10.27
2023-01-01T00:57:09.969Z,15.50
2023-01-01T00:59:38.044Z,12.13
2023-01-01T01:02:06.094Z,9.70
2023-01-01T01:04:34.100Z,9.27
2023-01-01T01:07:01.887Z,8.10
2023-01-01T01:09:29.678Z,9.43
2023-01-01T01:12:17.754Z,7.57
2023-01-01T01:14:46.731Z,8.27
2023-01-01T01:17:14.514Z,9.27
2023-01-01T01:19:42.271Z,9.37
2023-01-01T01:22:10.060Z,9.77
2023-01-01T01:24:37.943Z,8.93
2023-01-01T01:27:07.110Z,12.47
2023-01-01T01:29:36.943Z,10.10
2023-01-01T01:32:05.096Z,10.63
2023-01-01T01:34:33.409Z,6.88
2023-01-01T01:37:03.271Z,7.53
2023-01-01T01:39:31.311Z,8.80
2023-01-01T01:41:59.105Z,6.47
2023-01-01T01:44:54.005Z,9.73
2023-01-01T01:47:26.903Z,9.90
2023-01-01T01:50:00.352Z,10.37
2023-01-01T01:52:29.852Z,12.17
2023-01-01T01:54:58.680Z,20.47
2023-01-01T01:57:30.886Z,17.93
2023-01-01T02:00:10.334Z,16.17
2023-01-01T02:02:44.860Z,18.57
2023-01-01T02:05:13.478Z,20.30
2023-01-01T02:07:41.524Z,27.83
2023-01-01T02:10:09.944Z,20.20
2023-01-01T02:12:37.804Z,21.30
2023-01-01T02:15:09.450Z,20.03
2023-01-01T02:17:48.576Z,22.70
2023-01-01T02:20:28.999Z,33.70
2023-01-01T02:23:30.705Z,26.83
2023-01-01T02:26:16.201Z,34.43
2023-01-01T02:28:53.534Z,28.70
2023-01-01T02:31:27.730Z,32.43
2023-01-01T02:34:00.275Z,30.73
2023-01-01T02:36:31.334Z,36.37
2023-01-01T02:39:03.033Z,36.10
2023-01-01T02:41:35.727Z,30.30
2023-01-01T02:46:33.293Z,38.40
2023-01-01T02:49:09.871Z,31.27
2023-01-01T02:51:50.386Z,38.13
2023-01-01T02:54:26.739Z,31.40
2023-01-01T02:57:06.753Z,31.63
2023-01-01T03:00:03.579Z,23.23
2023-01-01T03:02:46.738Z,26.77
2023-01-01T03:05:26.385Z,31.13
2023-01-01T03:08:03.567Z,31.60
2023-01-01T03:10:42.517Z,33.37
2023-01-01T03:13:17.452Z,30.10
2023-01-01T03:15:55.458Z,29.10
2023-01-01T03:18:30.325Z,26.63
2023-01-01T03:21:01.855Z,28.47
2023-01-01T03:23:36.832Z,23.30
2023-01-01T03:26:10.418Z,19.97
2023-01-01T03:28:45.505Z,19.53
2023-01-01T03:31:19.140Z,18.43
2023-01-01T03:33:50.188Z,18.77
2023-01-01T03:36:23.476Z,18.40
2023-01-01T03:38:56.246Z,20.47
2023-01-01T03:41:30.824Z,21.27
2023-01-01T03:44:10.074Z,15.43
2023-01-01T03:46:39.325Z,20.97
2023-01-01T03:49:12.628Z,18.83
2023-01-01T03:51:57.480Z,21.07
2023-01-01T03:54:37.892Z,16.33
2023-01-01T03:57:13.531Z,12.80
2023-01-01T03:59:48.878Z,14.00
2023-01-01T04:02:22.466Z,13.73
2023-01-01T04:04:51.049Z,11.93
2023-01-01T04:07:18.965Z,16.87
2023-01-01T04:09:51.276Z,12.33
2023-01-01T04:12:20.416Z,9.43
2023-01-01T04:14:50.373Z,12.33
2023-01-01T04:17:19.745Z,9.30
2023-01-01T04:19:53.131Z,6.97
2023-01-01T04:22:23.873Z,9.17
2023-01-01T04:24:51.926Z,7.17
2023-01-01T04:27:19.957Z,6.77
2023-01-01T04:29:48.191Z,6.77
2023-01-01T04:32:15.921Z,7.43
2023-01-01T04:34:45.145Z,5.83
2023-01-01T04:37:13.653Z,3.63
2023-01-01T04:39:41.801Z,6.70
2023-01-01T04:42:09.777Z,8.60
2023-01-01T04:44:37.667Z,6.20
2023-01-01T04:47:05.768Z,4.37
2023-01-01T04:49:33.527Z,5.07
2023-01-01T04:52:05.103Z,4.00
2023-01-01T04:54:35.425Z,4.63
2023-01-01T04:57:03.277Z,4.40
2023-01-01T04:59:31.620Z,4.03
2023-01-01T05:01:59.939Z,5.93
2023-01-01T05:04:27.844Z,5.37
2023-01-01T05:06:55.954Z,4.00
2023-01-01T05:09:27.375Z,3.67
2023-01-01T05:11:55.877Z,4.53
2023-01-01T05:14:23.716Z,6.40
2023-01-01T05:16:51.587Z,5.17
2023-01-01T05:19:19.404Z,5.60
2023-01-01T05:21:47.121Z,3.80
2023-01-01T05:24:17.296Z,5.17
2023-01-01T05:26:46.700Z,5.10
2023-01-01T05:29:17.599Z,4.00
2023-01-01T05:31:46.789Z,3.70
2023-01-01T05:34:15.145Z,3.93
2023-01-01T05:36:42.987Z,3.50
2023-01-01T05:39:13.534Z,3.80
2023-01-01T05:41:43.751Z,3.20
2023-01-01T05:44:12.967Z,3.27
2023-01-01T05:46:40.884Z,3.73
2023-01-01T05:49:11.647Z,3.03
2023-01-01T05:54:06.609Z,3.93
2023-01-01T05:56:35.012Z,3.07
2023-01-01T05:59:02.912Z,2.70
2023-01-01T06:01:32.948Z,4.63
2023-01-01T06:04:01.271Z,3.53
2023-01-01T06:06:30.983Z,5.07
2023-01-01T06:09:01.066Z,4.90
2023-01-01T06:11:29.847Z,3.20
2023-01-01T06:13:59.231Z,3.47
2023-01-01T06:16:28.893Z,4.90
2023-01-01T06:19:00.445Z,4.77
2023-01-01T06:21:30.366Z,5.50
2023-01-01T06:23:59.445Z,3.73
2023-01-01T06:26:29.966Z,3.77
2023-01-01T06:28:58.729Z,4.10
2023-01-01T06:31:27.561Z,4.93
2023-01-01T06:33:55.616Z,3.23
2023-01-01T06:36:28.126Z,4.00
2023-01-01T06:38:58.610Z,4.03
2023-01-01T06:41:28.457Z,5.40
2023-01-01T06:43:56.401Z,5.47
2023-01-01T06:46:26.784Z,3.83
2023-01-01T06:48:56.858Z,4.73
2023-01-01T06:51:27.973Z,5.97
2023-01-01T06:53:56.019Z,3.87
2023-01-01T06:56:24.152Z,4.53
2023-01-01T06:58:52.118Z,3.77
2023-01-01T07:01:21.841Z,5.67
2023-01-01T07:03:52.663Z,4.60
2023-01-01T07:06:20.563Z,4.07
2023-01-01T07:08:50.606Z,3.77
2023-01-01T07:11:18.807Z,3.47
2023-01-01T07:13:46.881Z,4.70
2023-01-01T07:16:15.297Z,3.40
2023-01-01T07:18:43.772Z,4.37
2023-01-01T07:21:29.638Z,4.37
2023-01-01T07:24:03.210Z,3.30
2023-01-01T07:26:32.569Z,4.07
2023-01-01T07:29:07.446Z,3.83
2023-01-01T07:31:36.163Z,3.27
2023-01-01T07:34:04.354Z,3.30
2023-01-01T07:36:32.360Z,4.53
2023-01-01T07:39:01.478Z,5.20
2023-01-01T07:41:29.257Z,3.67
2023-01-01T07:44:00.386Z,3.90
2023-01-01T07:46:28.419Z,3.53
2023-01-01T07:48:56.465Z,3.13
2023-01-01T07:51:24.467Z,3.33
2023-01-01T07:53:52.301Z,4.00
2023-01-01T07:56:21.488Z,3.53
2023-01-01T07:58:49.355Z,3.03
2023-01-01T08:01:17.309Z,3.07
2023-01-01T08:03:45.205Z,8.03
2023-01-01T08:06:15.447Z,2.97
2023-01-01T08:08:45.427Z,2.90
2023-01-01T08:11:13.218Z,4.80
2023-01-01T08:13:44.992Z,3.77
2023-01-01T08:16:12.815Z,4.67
2023-01-01T08:18:40.696Z,3.77
2023-01-01T08:21:09.506Z,5.40
2023-01-01T08:23:37.800Z,4.00
2023-01-01T08:26:05.710Z,4.47
2023-01-01T08:28:33.526Z,4.17
2023-01-01T08:31:02.686Z,3.50
2023-01-01T08:33:30.474Z,3.90
2023-01-01T08:35:59.453Z,2.63
2023-01-01T08:38:27.549Z,2.83
2023-01-01T08:40:55.269Z,4.90
2023-01-01T08:43:28.442Z,3.13
2023-01-01T08:45:56.443Z,3.63
2023-01-01T08:48:30.601Z,4.60
2023-01-01T08:51:01.703Z,3.43
2023-01-01T08:53:30.681Z,2.63
2023-01-01T08:55:59.295Z,2.80
2023-01-01T08:58:27.660Z,3.77
2023-01-01T09:00:55.558Z,4.17
2023-01-01T09:03:24.996Z,3.63
2023-01-01T09:05:53.983Z,3.90
2023-01-01T09:08:22.440Z,4.00
2023-01-01T09:10:51.123Z,3.53
2023-01-01T09:13:21.586Z,4.40
2023-01-01T09:15:51.928Z,4.10
2023-01-01T09:18:22.950Z,3.37
2023-01-01T09:20:52.150Z,3.63
2023-01-01T09:23:22.519Z,5.43
2023-01-01T09:25:50.290Z,2.93
2023-01-01T09:28:25.404Z,3.03
2023-01-01T09:30:53.969Z,3.13
2023-01-01T09:33:22.024Z,4.03
2023-01-01T09:35:49.871Z,3.70
2023-01-01T09:38:19.505Z,3.67
2023-01-01T09:40:59.838Z,4.63
2023-01-01T09:43:39.708Z,2.40
2023-01-01T09:46:11.206Z,5.97
2023-01-01T09:48:42.918Z,2.93
2023-01-01T09:51:16.453Z,5.27
2023-01-01T09:53:52.240Z,3.03
2023-01-01T09:56:24.987Z,5.33
2023-01-01T09:58:56.072Z,3.50
2023-01-01T10:01:34.870Z,4.37
2023-01-01T10:04:19.935Z,3.43
2023-01-01T10:06:58.447Z,2.73
2023-01-01T10:09:34.497Z,3.33
2023-01-01T10:12:08.906Z,6.47
2023-01-01T10:14:39.625Z,3.95
2023-01-01T10:17:14.118Z,3.83
2023-01-01T10:19:45.998Z,4.63
2023-01-01T10:22:18.369Z,3.90
2023-01-01T10:24:52.959Z,3.53
2023-01-01T10:27:31.920Z,2.55
2023-01-01T10:30:04.794Z,5.05
2023-01-01T10:32:35.152Z,2.67
2023-01-01T10:35:04.382Z,4.93
2023-01-01T10:37:38.647Z,7.65
2023-01-01T10:40:16.305Z,2.80
2023-01-01T10:42:48.508Z,2.83
2023-01-01T10:45:19.091Z,4.53
2023-01-01T10:48:20.758Z,4.20
2023-01-01T10:50:51.650Z,3.53
2023-01-01T10:53:28.898Z,3.92
2023-01-01T10:56:04.266Z,3.45
2023-01-01T10:58:38.831Z,3.40
2023-01-01T11:01:08.920Z,3.58
2023-01-01T11:03:37.440Z,6.50
2023-01-01T11:06:19.591Z,4.13
2023-01-01T11:08:50.604Z,4.55
2023-01-01T11:11:28.130Z,8.07
2023-01-01T11:14:02.014Z,5.65
2023-01-01T11:16:30.492Z,3.45
2023-01-01T11:19:06.970Z,5.45
2023-01-01T11:21:36.096Z,4.53
2023-01-01T11:24:19.116Z,3.30
2023-01-01T11:26:54.176Z,3.42
2023-01-01T11:29:28.850Z,3.30
2023-01-01T11:32:00.540Z,5.95
2023-01-01T11:34:35.797Z,7.05
2023-01-01T11:37:16.262Z,4.10
2023-01-01T11:39:46.113Z,3.25
2023-01-01T11:42:20.957Z,2.53
2023-01-01T11:44:52.255Z,5.68
2023-01-01T11:47:26.168Z,3.00
2023-01-01T11:50:00.871Z,2.92
2023-01-01T11:52:36.148Z,4.03
2023-01-01T11:55:13.550Z,3.53
2023-01-01T11:57:47.583Z,3.65
2023-01-01T12:00:17.500Z,3.03
2023-01-01T12:02:51.748Z,6.07
2023-01-01T12:05:24.431Z,4.20
2023-01-01T12:07:56.410Z,5.05
2023-01-01T12:10:28.319Z,5.60
2023-01-01T12:13:05.401Z,5.85
2023-01-01T12:15:38.935Z,3.70
2023-01-01T12:18:14.363Z,4.22
2023-01-01T12:20:49.097Z,4.25
2023-01-01T12:23:19.660Z,3.10
2023-01-01T12:25:55.781Z,3.85
2023-01-01T12:28:35.097Z,3.28
2023-01-01T12:31:13.898Z,3.17
2023-01-01T12:33:58.770Z,5.40
2023-01-01T12:36:36.765Z,5.00
2023-01-01T12:39:40.359Z,5.13
2023-01-01T12:42:18.261Z,4.85
2023-01-01T12:45:03.192Z,4.93
2023-01-01T12:47:42.580Z,5.63
2023-01-01T12:50:18.762Z,3.42
2023-01-01T12:52:58.829Z,6.20
2023-01-01T12:55:47.939Z,4.05
2023-01-01T12:58:20.842Z,5.88
2023-01-01T13:00:56.088Z,4.43
2023-01-01T13:03:31.147Z,4.82
2023-01-01T13:06:01.612Z,6.95
2023-01-01T13:08:29.337Z,3.08
2023-01-01T13:11:01.244Z,4.97
2023-01-01T13:13:29.121Z,3.22
2023-01-01T13:15:59.106Z,7.25
2023-01-01T13:18:30.370Z,3.85
2023-01-01T13:21:02.276Z,6.13
2023-01-01T13:23:47.650Z,2.17
2023-01-01T13:26:38.532Z,5.38
2023-01-01T13:29:35.072Z,3.20
2023-01-01T13:32:08.365Z,2.30
2023-01-01T13:34:40.291Z,5.00
2023-01-01T13:37:43.636Z,4.00
2023-01-01T13:40:45.284Z,5.60
2023-01-01T13:43:20.940Z,3.67
2023-01-01T13:46:13.316Z,3.70
2023-01-01T13:49:20.872Z,4.03
2023-01-01T13:52:30.869Z,5.05
2023-01-01T13:55:44.599Z,3.55
2023-01-01T13:58:44.433Z,4.15
2023-01-01T14:01:32.977Z,2.40
2023-01-01T14:04:10.083Z,5.25
2023-01-01T14:06:43.475Z,2.95
2023-01-01T14:09:14.403Z,2.38
2023-01-01T14:11:42.841Z,3.25
2023-01-01T14:14:24.074Z,5.30
2023-01-01T14:16:53.241Z,3.70
2023-01-01T14:19:23.654Z,4.93
2023-01-01T14:21:52.648Z,3.45
2023-01-01T14:24:22.328Z,3.10
2023-01-01T14:26:50.708Z,3.33
2023-01-01T14:29:22.781Z,5.90
2023-01-01T14:31:50.610Z,3.25
2023-01-01T14:34:25.743Z,3.58
2023-01-01T14:36:55.607Z,5.13
2023-01-01T14:39:28.308Z,5.43
2023-01-01T14:42:00.554Z,5.50
2023-01-01T14:44:35.857Z,4.30
2023-01-01T14:47:04.740Z,3.00
2023-01-01T14:49:36.638Z,2.50
2023-01-01T14:52:10.237Z,2.80
2023-01-01T14:54:40.199Z,3.15
2023-01-01T14:57:12.475Z,2.45
2023-01-01T14:59:47.186Z,4.18
2023-01-01T15:02:16.920Z,3.28
2023-01-01T15:04:48.835Z,5.40
2023-01-01T15:07:22.804Z,6.05
2023-01-01T15:09:51.386Z,6.15
2023-01-01T15:12:20.324Z,3.88
2023-01-01T15:14:49.651Z,4.65
2023-01-01T15:17:19.891Z,4.85
2023-01-01T15:20:02.491Z,4.10
2023-01-01T15:22:35.234Z,4.78
2023-01-01T15:25:04.090Z,3.75
2023-01-01T15:27:33.980Z,4.10
2023-01-01T15:30:07.025Z,7.63
2023-01-01T15:32:39.516Z,3.47
2023-01-01T15:35:26.193Z,6.63
2023-01-01T15:38:02.097Z,4.25
2023-01-01T15:40:36.045Z,4.20
2023-01-01T15:43:14.495Z,6.22
2023-01-01T15:45:44.004Z,7.63
2023-01-01T15:48:22.098Z,7.25
2023-01-01T15:51:04.302Z,5.35
2023-01-01T15:53:47.813Z,8.00
2023-01-01T15:56:16.634Z,5.75
2023-01-01T15:58:51.483Z,8.85
2023-01-01T16:01:22.636Z,9.00
2023-01-01T16:04:01.147Z,10.07
2023-01-01T16:06:30.732Z,7.28
2023-01-01T16:09:00.617Z,9.95
2023-01-01T16:11:28.660Z,6.30
2023-01-01T16:13:56.589Z,7.93
2023-01-01T16:16:27.474Z,8.20
2023-01-01T16:18:58.382Z,10.20
2023-01-01T16:21:29.193Z,9.98
2023-01-01T16:23:59.994Z,7.45
2023-01-01T16:26:27.997Z,7.00
2023-01-01T16:28:56.422Z,11.13
2023-01-01T16:31:28.771Z,11.38
2023-01-01T16:33:58.766Z,11.25
2023-01-01T16:36:29.252Z,7.90
2023-01-01T16:38:59.461Z,7.03
2023-01-01T16:41:28.662Z,8.82
2023-01-01T16:43:56.819Z,6.35
2023-01-01T16:46:28.083Z,6.28
2023-01-01T16:48:56.919Z,9.02
2023-01-01T16:51:31.631Z,7.70
2023-01-01T16:54:01.346Z,5.55
2023-01-01T16:56:29.628Z,6.50
2023-01-01T16:59:02.715Z,8.88
2023-01-01T17:01:33.482Z,8.38
2023-01-01T17:04:02.344Z,6.57
2023-01-01T17:06:30.413Z,5.53
2023-01-01T17:09:01.619Z,9.10
2023-01-01T17:11:29.489Z,12.10
2023-01-01T17:13:59.659Z,9.17
2023-01-01T17:16:34.431Z,10.63
2023-01-01T17:19:21.718Z,9.07
2023-01-01T17:21:51.853Z,9.97
2023-01-01T17:24:21.507Z,8.80
2023-01-01T17:26:52.694Z,9.13
2023-01-01T17:29:20.733Z,10.40
2023-01-01T17:31:48.915Z,8.57
2023-01-01T17:34:16.784Z,8.27
2023-01-01T17:36:46.959Z,7.23
2023-01-01T17:39:15.865Z,6.60
2023-01-01T17:41:47.391Z,7.53
2023-01-01T17:44:15.414Z,7.20
2023-01-01T17:46:44.291Z,9.93
2023-01-01T17:49:12.640Z,10.63
2023-01-01T17:51:40.595Z,9.30
2023-01-01T17:54:27.016Z,8.87
2023-01-01T17:56:59.580Z,8.27
2023-01-01T17:59:28.649Z,8.33
2023-01-01T18:01:56.742Z,9.57
2023-01-01T18:04:24.683Z,9.47
2023-01-01T18:06:54.741Z,7.40
2023-01-01T18:09:25.965Z,10.10
2023-01-01T18:11:55.924Z,13.07
2023-01-01T18:14:26.203Z,8.97
2023-01-01T18:16:54.057Z,8.80
2023-01-01T18:19:23.939Z,10.93
2023-01-01T18:21:51.891Z,8.73
2023-01-01T18:24:20.454Z,11.63
2023-01-01T18:26:48.442Z,7.40
2023-01-01T18:29:18.428Z,9.00
2023-01-01T18:31:47.723Z,7.53
2023-01-01T18:34:16.173Z,9.27
2023-01-01T18:36:46.890Z,6.50
2023-01-01T18:39:17.547Z,8.10
2023-01-01T18:42:00.731Z,6.83
2023-01-01T18:44:32.155Z,10.77
2023-01-01T18:47:13.694Z,12.90
2023-01-01T18:49:45.842Z,9.17
2023-01-01T18:52:21.655Z,9.20
2023-01-01T18:54:53.263Z,9.53
2023-01-01T18:57:29.120Z,9.40
2023-01-01T18:59:59.983Z,7.40
2023-01-01T19:02:39.298Z,12.23
2023-01-01T19:05:17.418Z,6.77
2023-01-01T19:07:46.501Z,9.03
2023-01-01T19:10:15.479Z,8.67
2023-01-01T19:12:44.681Z,9.13
2023-01-01T19:15:18.406Z,13.07
2023-01-01T19:17:48.129Z,10.77
2023-01-01T19:20:22.467Z,10.27
2023-01-01T19:22:58.233Z,12.50
2023-01-01T19:25:37.296Z,9.37
2023-01-01T19:28:27.454Z,8.53
2023-01-01T19:30:55.838Z,12.23
2023-01-01T19:33:27.250Z,9.20
2023-01-01T19:35:55.455Z,11.40
2023-01-01T19:38:23.569Z,9.17
2023-01-01T19:40:51.969Z,12.13
2023-01-01T19:43:20.019Z,8.93
2023-01-01T19:45:47.807Z,11.33
2023-01-01T19:48:15.722Z,9.07
2023-01-01T19:50:45.602Z,8.13
2023-01-01T19:53:13.545Z,9.17
2023-01-01T19:55:42.665Z,7.40
2023-01-01T19:58:10.803Z,5.53
2023-01-01T20:00:39.092Z,3.70
2023-01-01T20:03:43.332Z,5.47
2023-01-01T20:05:59.219Z,2.03
2023-01-01T20:08:28.545Z,3.10
2023-01-01T20:10:56.535Z,3.13
2023-01-01T20:13:24.544Z,2.40
2023-01-01T20:15:53.362Z,2.67
2023-01-01T20:18:21.313Z,4.50
2023-01-01T20:21:06.980Z,1.63
2023-01-01T20:23:36.402Z,1.87
2023-01-01T20:26:05.193Z,2.97
2023-01-01T20:28:53.699Z,1.80
2023-01-01T20:31:21.702Z,3.97
2023-01-01T20:33:49.529Z,1.93
2023-01-01T20:36:34.816Z,1.60
2023-01-01T20:39:04.344Z,1.50
2023-01-01T20:41:32.104Z,1.50
2023-01-01T20:44:01.638Z,1.80
2023-01-01T20:46:30.982Z,2.07
2023-01-01T20:48:59.232Z,1.53
2023-01-01T20:51:28.518Z,1.57
2023-01-01T20:53:57.211Z,1.77
2023-01-01T20:56:27.515Z,3.77
2023-01-01T20:59:02.038Z,4.50
2023-01-01T21:01:35.731Z,3.17
2023-01-01T21:04:04.061Z,2.37
2023-01-01T21:06:32.197Z,3.93
2023-01-01T21:08:59.976Z,4.83
2023-01-01T21:11:29.174Z,4.87
2023-01-01T21:13:56.971Z,4.00
2023-01-01T21:16:28.855Z,5.07
2023-01-01T21:18:57.177Z,3.67
2023-01-01T21:21:27.388Z,3.90
2023-01-01T21:24:02.329Z,4.87
2023-01-01T21:26:36.165Z,5.10
2023-01-01T21:29:08.927Z,4.67
2023-01-01T21:31:39.509Z,3.93
2023-01-01T21:34:25.037Z,5.70
2023-01-01T21:36:55.165Z,3.90
2023-01-01T21:39:28.988Z,3.73
2023-01-01T21:42:07.609Z,3.30
2023-01-01T21:44:35.432Z,2.90
2023-01-01T21:47:03.320Z,4.90
2023-01-01T21:49:36.745Z,4.70
2023-01-01T21:52:15.423Z,4.47
2023-01-01T21:54:44.520Z,5.27
2023-01-01T21:57:18.242Z,4.47
2023-01-01T21:59:47.411Z,3.70
2023-01-01T22:02:36.485Z,3.17
2023-01-01T22:05:29.743Z,3.90
2023-01-01T22:07:59.481Z,4.30
2023-01-01T22:10:33.400Z,3.17
2023-01-01T22:13:02.686Z,3.20
2023-01-01T22:15:37.883Z,6.83
2023-01-01T22:18:27.038Z,4.50
2023-01-01T22:20:55.300Z,5.57
2023-01-01T22:23:33.430Z,3.53
2023-01-01T22:26:01.638Z,3.63
2023-01-01T22:28:38.211Z,3.43
2023-01-01T22:31:06.132Z,3.53
2023-01-01T22:33:38.465Z,2.50
2023-01-01T22:36:13.591Z,2.83
2023-01-01T22:38:41.935Z,4.00
2023-01-01T22:41:10.426Z,4.47
2023-01-01T22:43:44.067Z,2.80
2023-01-01T22:46:17.769Z,2.93
2023-01-01T22:48:52.761Z,4.00
2023-01-01T22:51:33.026Z,3.17
2023-01-01T22:54:00.802Z,2.30
2023-01-01T22:56:28.627Z,3.87
2023-01-01T22:58:57.916Z,2.20
2023-01-01T23:01:25.792Z,1.90
2023-01-01T23:03:53.817Z,1.90
2023-01-01T23:06:22.537Z,4.03
2023-01-01T23:08:54.349Z,2.50
2023-01-01T23:11:22.437Z,2.17
2023-01-01T23:14:11.057Z,3.70
2023-01-01T23:16:40.231Z,2.90
2023-01-01T23:19:08.161Z,3.20
2023-01-01T23:21:37.401Z,2.23
2023-01-01T23:24:09.598Z,2.20
2023-01-01T23:26:38.598Z,4.10
2023-01-01T23:29:07.271Z,2.50
2023-01-01T23:31:35.650Z,2.83
2023-01-01T23:34:05.931Z,2.20
2023-01-01T23:36:34.267Z,3.67
2023-01-01T23:39:02.135Z,3.40
2023-01-01T23:41:29.971Z,3.03
2023-01-01T23:43:58.276Z,2.90
2023-01-01T23:46:26.410Z,4.30
2023-01-01T23:48:55.896Z,2.40
2023-01-01T23:51:25.050Z,2.30
2023-01-01T23:53:52.821Z,2.50
2023-01-01T23:56:20.636Z,4.00
2023-01-01T23:58:49.377Z,3.23
